sensor_id;sensor_type;location;lat;lon;timestamp;temperature;humidity
439;DHT22;206;48.782;9.252;2022-10-16T00:00:42;17.70;78.60
439;DHT22;206;48.782;9.252;2022-10-16T00:03:09;17.80;78.60
439;DHT22;206;48.782;9.252;2022-10-16T00:05:42;17.80;78.90
439;DHT22;206;48.782;9.252;2022-10-16T00:08:12;17.80;79.10
439;DHT22;206;48.782;9.252;2022-10-16T00:10:39;17.70;79.10
439;DHT22;206;48.782;9.252;2022-10-16T00:13:05;17.80;79.10
439;DHT22;206;48.782;9.252;2022-10-16T00:15:34;17.70;79.20
439;DHT22;206;48.782;9.252;2022-10-16T00:18:02;17.70;79.10
439;DHT22;206;48.782;9.252;2022-10-16T00:20:28;17.60;79.10
439;DHT22;206;48.782;9.252;2022-10-16T00:22:53;17.60;79.70
439;DHT22;206;48.782;9.252;2022-10-16T00:25:19;17.60;80.10
439;DHT22;206;48.782;9.252;2022-10-16T00:27:45;17.40;81.80
439;DHT22;206;48.782;9.252;2022-10-16T00:30:10;17.40;82.90
439;DHT22;206;48.782;9.252;2022-10-16T00:32:36;17.30;85.20
439;DHT22;206;48.782;9.252;2022-10-16T00:35:02;17.20;85.30
439;DHT22;206;48.782;9.252;2022-10-16T00:37:29;17.20;85.50
439;DHT22;206;48.782;9.252;2022-10-16T00:39:54;17.10;87.00
439;DHT22;206;48.782;9.252;2022-10-16T00:42:22;17.00;88.40
439;DHT22;206;48.782;9.252;2022-10-16T00:44:53;17.00;89.10
439;DHT22;206;48.782;9.252;2022-10-16T00:47:40;16.90;90.00
439;DHT22;206;48.782;9.252;2022-10-16T00:50:16;16.90;89.00
439;DHT22;206;48.782;9.252;2022-10-16T00:52:46;16.90;89.20
439;DHT22;206;48.782;9.252;2022-10-16T00:55:12;17.00;89.10
439;DHT22;206;48.782;9.252;2022-10-16T00:57:39;17.00;89.10
439;DHT22;206;48.782;9.252;2022-10-16T01:00:07;17.00;89.10
439;DHT22;206;48.782;9.252;2022-10-16T01:02:33;16.90;89.70
439;DHT22;206;48.782;9.252;2022-10-16T01:04:59;16.90;90.00
439;DHT22;206;48.782;9.252;2022-10-16T01:07:50;16.90;90.00
439;DHT22;206;48.782;9.252;2022-10-16T01:10:35;16.90;89.60
439;DHT22;206;48.782;9.252;2022-10-16T01:13:24;16.90;90.00
439;DHT22;206;48.782;9.252;2022-10-16T01:21:18;16.80;90.30
439;DHT22;206;48.782;9.252;2022-10-16T01:34:54;16.90;89.00
439;DHT22;206;48.782;9.252;2022-10-16T01:37:40;17.00;89.10
439;DHT22;206;48.782;9.252;2022-10-16T01:40:11;17.00;89.10
439;DHT22;206;48.782;9.252;2022-10-16T01:42:49;17.00;89.10
439;DHT22;206;48.782;9.252;2022-10-16T01:45:17;17.00;88.50
439;DHT22;206;48.782;9.252;2022-10-16T01:47:45;17.00;88.20
439;DHT22;206;48.782;9.252;2022-10-16T01:50:12;17.00;88.10
439;DHT22;206;48.782;9.252;2022-10-16T01:52:43;17.00;88.10
439;DHT22;206;48.782;9.252;2022-10-16T01:55:12;17.00;88.20
439;DHT22;206;48.782;9.252;2022-10-16T01:57:42;17.00;88.30
439;DHT22;206;48.782;9.252;2022-10-16T02:00:12;17.00;88.40
439;DHT22;206;48.782;9.252;2022-10-16T02:02:44;17.00;88.20
439;DHT22;206;48.782;9.252;2022-10-16T02:05:28;17.00;88.40
439;DHT22;206;48.782;9.252;2022-10-16T02:07:55;17.00;88.20
439;DHT22;206;48.782;9.252;2022-10-16T02:10:22;17.00;87.80
439;DHT22;206;48.782;9.252;2022-10-16T02:12:55;17.00;87.90
439;DHT22;206;48.782;9.252;2022-10-16T02:15:21;17.00;88.40
439;DHT22;206;48.782;9.252;2022-10-16T02:17:47;17.00;88.70
439;DHT22;206;48.782;9.252;2022-10-16T02:20:12;17.00;89.10
439;DHT22;206;48.782;9.252;2022-10-16T02:22:42;16.90;89.00
439;DHT22;206;48.782;9.252;2022-10-16T02:28:06;16.90;89.20
439;DHT22;206;48.782;9.252;2022-10-16T02:33:06;16.90;90.00
439;DHT22;206;48.782;9.252;2022-10-16T02:35:32;16.80;90.30
439;DHT22;206;48.782;9.252;2022-10-16T02:37:59;16.80;90.30
439;DHT22;206;48.782;9.252;2022-10-16T02:40:25;16.80;90.80
439;DHT22;206;48.782;9.252;2022-10-16T02:42:53;16.80;90.40
439;DHT22;206;48.782;9.252;2022-10-16T02:45:19;16.80;90.50
439;DHT22;206;48.782;9.252;2022-10-16T02:47:45;16.80;90.40
439;DHT22;206;48.782;9.252;2022-10-16T02:50:11;16.80;90.30
439;DHT22;206;48.782;9.252;2022-10-16T02:52:36;16.80;90.50
439;DHT22;206;48.782;9.252;2022-10-16T02:55:02;16.80;90.30
439;DHT22;206;48.782;9.252;2022-10-16T02:57:28;16.80;90.10
439;DHT22;206;48.782;9.252;2022-10-16T02:59:53;16.80;90.30
439;DHT22;206;48.782;9.252;2022-10-16T03:02:19;16.80;90.10
439;DHT22;206;48.782;9.252;2022-10-16T03:04:44;16.90;90.00
439;DHT22;206;48.782;9.252;2022-10-16T03:07:10;16.90;89.00
439;DHT22;206;48.782;9.252;2022-10-16T03:09:36;16.80;89.00
439;DHT22;206;48.782;9.252;2022-10-16T03:12:02;16.80;88.90
439;DHT22;206;48.782;9.252;2022-10-16T03:14:27;16.80;89.60
439;DHT22;206;48.782;9.252;2022-10-16T03:16:53;16.80;89.70
439;DHT22;206;48.782;9.252;2022-10-16T03:19:19;16.80;90.00
439;DHT22;206;48.782;9.252;2022-10-16T03:21:45;16.80;89.80
439;DHT22;206;48.782;9.252;2022-10-16T03:24:10;16.80;89.50
439;DHT22;206;48.782;9.252;2022-10-16T03:26:36;16.80;89.20
439;DHT22;206;48.782;9.252;2022-10-16T03:29:02;16.80;89.30
439;DHT22;206;48.782;9.252;2022-10-16T03:31:29;16.80;89.20
439;DHT22;206;48.782;9.252;2022-10-16T03:33:54;16.70;89.80
439;DHT22;206;48.782;9.252;2022-10-16T03:36:20;16.70;89.70
439;DHT22;206;48.782;9.252;2022-10-16T03:38:45;16.70;89.50
439;DHT22;206;48.782;9.252;2022-10-16T03:41:11;16.70;89.20
439;DHT22;206;48.782;9.252;2022-10-16T03:43:37;16.70;89.30
439;DHT22;206;48.782;9.252;2022-10-16T03:46:02;16.70;89.20
439;DHT22;206;48.782;9.252;2022-10-16T03:48:29;16.70;89.40
439;DHT22;206;48.782;9.252;2022-10-16T03:50:54;16.60;90.10
439;DHT22;206;48.782;9.252;2022-10-16T03:53:20;16.50;90.50
439;DHT22;206;48.782;9.252;2022-10-16T03:55:45;16.50;90.80
439;DHT22;206;48.782;9.252;2022-10-16T03:58:11;16.50;90.50
439;DHT22;206;48.782;9.252;2022-10-16T04:00:46;16.50;90.30
439;DHT22;206;48.782;9.252;2022-10-16T04:03:15;16.60;90.40
439;DHT22;206;48.782;9.252;2022-10-16T04:05:41;16.50;90.40
439;DHT22;206;48.782;9.252;2022-10-16T04:08:06;16.50;90.30
439;DHT22;206;48.782;9.252;2022-10-16T04:10:32;16.50;90.10
439;DHT22;206;48.782;9.252;2022-10-16T04:12:58;16.50;90.50
439;DHT22;206;48.782;9.252;2022-10-16T04:15:24;16.40;90.60
439;DHT22;206;48.782;9.252;2022-10-16T04:17:50;16.40;91.00
439;DHT22;206;48.782;9.252;2022-10-16T04:20:17;16.40;91.20
439;DHT22;206;48.782;9.252;2022-10-16T04:22:42;16.40;91.10
439;DHT22;206;48.782;9.252;2022-10-16T04:25:08;16.40;91.00
439;DHT22;206;48.782;9.252;2022-10-16T04:27:34;16.40;90.90
439;DHT22;206;48.782;9.252;2022-10-16T04:30:00;16.40;90.70
439;DHT22;206;48.782;9.252;2022-10-16T04:32:26;16.40;90.70
439;DHT22;206;48.782;9.252;2022-10-16T04:34:52;16.40;90.70
439;DHT22;206;48.782;9.252;2022-10-16T04:37:18;16.40;90.50
439;DHT22;206;48.782;9.252;2022-10-16T04:39:43;16.50;90.30
439;DHT22;206;48.782;9.252;2022-10-16T04:42:10;16.40;90.40
439;DHT22;206;48.782;9.252;2022-10-16T04:44:36;16.50;90.30
439;DHT22;206;48.782;9.252;2022-10-16T04:47:01;16.40;90.40
439;DHT22;206;48.782;9.252;2022-10-16T04:49:27;16.40;90.30
439;DHT22;206;48.782;9.252;2022-10-16T04:51:52;16.50;90.40
439;DHT22;206;48.782;9.252;2022-10-16T04:54:18;16.40;90.40
439;DHT22;206;48.782;9.252;2022-10-16T04:56:44;16.40;90.80
439;DHT22;206;48.782;9.252;2022-10-16T04:59:13;16.50;90.70
439;DHT22;206;48.782;9.252;2022-10-16T05:01:39;16.50;90.50
439;DHT22;206;48.782;9.252;2022-10-16T05:04:05;16.50;90.50
439;DHT22;206;48.782;9.252;2022-10-16T05:06:31;16.50;90.40
439;DHT22;206;48.782;9.252;2022-10-16T05:08:56;16.50;90.30
439;DHT22;206;48.782;9.252;2022-10-16T05:11:22;16.50;90.30
439;DHT22;206;48.782;9.252;2022-10-16T05:13:47;16.50;90.50
439;DHT22;206;48.782;9.252;2022-10-16T05:16:13;16.50;90.60
439;DHT22;206;48.782;9.252;2022-10-16T05:18:38;16.40;90.40
439;DHT22;206;48.782;9.252;2022-10-16T05:21:04;16.50;90.70
439;DHT22;206;48.782;9.252;2022-10-16T05:23:31;16.50;90.70
439;DHT22;206;48.782;9.252;2022-10-16T05:25:57;16.40;90.70
439;DHT22;206;48.782;9.252;2022-10-16T05:28:27;16.50;90.70
439;DHT22;206;48.782;9.252;2022-10-16T05:30:53;16.40;90.70
439;DHT22;206;48.782;9.252;2022-10-16T05:33:24;16.40;90.90
439;DHT22;206;48.782;9.252;2022-10-16T05:35:50;16.40;90.70
439;DHT22;206;48.782;9.252;2022-10-16T05:38:16;16.40;90.90
439;DHT22;206;48.782;9.252;2022-10-16T05:40:42;16.40;90.90
439;DHT22;206;48.782;9.252;2022-10-16T05:43:08;16.40;90.90
439;DHT22;206;48.782;9.252;2022-10-16T05:45:34;16.40;90.60
439;DHT22;206;48.782;9.252;2022-10-16T05:48:00;16.40;90.90
439;DHT22;206;48.782;9.252;2022-10-16T05:50:26;16.30;90.90
439;DHT22;206;48.782;9.252;2022-10-16T05:52:52;16.30;90.90
439;DHT22;206;48.782;9.252;2022-10-16T05:55:17;16.30;91.00
439;DHT22;206;48.782;9.252;2022-10-16T05:57:43;16.30;91.30
439;DHT22;206;48.782;9.252;2022-10-16T06:00:09;16.30;91.40
439;DHT22;206;48.782;9.252;2022-10-16T06:02:35;16.30;91.40
439;DHT22;206;48.782;9.252;2022-10-16T06:05:01;16.30;91.40
439;DHT22;206;48.782;9.252;2022-10-16T06:07:26;16.40;91.10
439;DHT22;206;48.782;9.252;2022-10-16T06:09:52;16.40;90.90
439;DHT22;206;48.782;9.252;2022-10-16T06:12:18;16.40;90.60
439;DHT22;206;48.782;9.252;2022-10-16T06:14:45;16.40;90.40
439;DHT22;206;48.782;9.252;2022-10-16T06:17:13;16.50;90.50
439;DHT22;206;48.782;9.252;2022-10-16T06:19:39;16.40;90.30
439;DHT22;206;48.782;9.252;2022-10-16T06:22:04;16.40;90.40
439;DHT22;206;48.782;9.252;2022-10-16T06:24:30;16.40;90.60
439;DHT22;206;48.782;9.252;2022-10-16T06:26:55;16.50;90.70
439;DHT22;206;48.782;9.252;2022-10-16T06:29:21;16.50;90.40
439;DHT22;206;48.782;9.252;2022-10-16T06:31:46;16.50;90.10
439;DHT22;206;48.782;9.252;2022-10-16T06:34:12;16.60;90.00
439;DHT22;206;48.782;9.252;2022-10-16T06:36:38;16.60;89.50
439;DHT22;206;48.782;9.252;2022-10-16T06:39:04;16.60;88.70
439;DHT22;206;48.782;9.252;2022-10-16T06:41:32;16.60;88.80
439;DHT22;206;48.782;9.252;2022-10-16T06:43:57;16.70;88.80
439;DHT22;206;48.782;9.252;2022-10-16T06:46:24;16.80;88.10
439;DHT22;206;48.782;9.252;2022-10-16T06:48:50;16.80;87.00
439;DHT22;206;48.782;9.252;2022-10-16T06:51:18;16.90;87.70
439;DHT22;206;48.782;9.252;2022-10-16T06:53:46;16.90;87.20
439;DHT22;206;48.782;9.252;2022-10-16T06:56:33;17.00;86.00
439;DHT22;206;48.782;9.252;2022-10-16T06:58:59;17.10;84.40
439;DHT22;206;48.782;9.252;2022-10-16T07:01:26;17.10;84.40
439;DHT22;206;48.782;9.252;2022-10-16T07:03:52;17.10;83.10
439;DHT22;206;48.782;9.252;2022-10-16T07:06:20;17.20;82.80
439;DHT22;206;48.782;9.252;2022-10-16T07:08:46;17.10;82.90
439;DHT22;206;48.782;9.252;2022-10-16T07:11:14;17.20;82.70
439;DHT22;206;48.782;9.252;2022-10-16T07:13:41;17.30;82.90
439;DHT22;206;48.782;9.252;2022-10-16T07:16:11;17.40;82.20
439;DHT22;206;48.782;9.252;2022-10-16T07:18:37;17.40;81.10
439;DHT22;206;48.782;9.252;2022-10-16T07:21:07;17.50;80.00
439;DHT22;206;48.782;9.252;2022-10-16T07:23:32;17.60;80.10
439;DHT22;206;48.782;9.252;2022-10-16T07:25:58;17.70;78.00
439;DHT22;206;48.782;9.252;2022-10-16T07:28:24;17.80;78.30
439;DHT22;206;48.782;9.252;2022-10-16T07:30:50;17.80;77.50
439;DHT22;206;48.782;9.252;2022-10-16T07:33:15;17.90;76.60
439;DHT22;206;48.782;9.252;2022-10-16T07:35:51;17.90;75.60
439;DHT22;206;48.782;9.252;2022-10-16T07:38:17;17.90;75.80
439;DHT22;206;48.782;9.252;2022-10-16T07:40:44;18.00;75.80
439;DHT22;206;48.782;9.252;2022-10-16T07:43:10;18.00;75.40
439;DHT22;206;48.782;9.252;2022-10-16T07:45:35;17.90;75.50
439;DHT22;206;48.782;9.252;2022-10-16T07:48:01;18.00;75.60
439;DHT22;206;48.782;9.252;2022-10-16T07:50:26;18.00;76.70
439;DHT22;206;48.782;9.252;2022-10-16T07:52:52;18.00;76.40
439;DHT22;206;48.782;9.252;2022-10-16T07:55:18;18.10;76.00
439;DHT22;206;48.782;9.252;2022-10-16T07:57:43;18.20;75.80
439;DHT22;206;48.782;9.252;2022-10-16T08:00:09;18.30;74.30
439;DHT22;206;48.782;9.252;2022-10-16T08:02:39;18.40;73.10
439;DHT22;206;48.782;9.252;2022-10-16T08:05:06;18.50;71.00
439;DHT22;206;48.782;9.252;2022-10-16T08:07:31;18.50;71.00
439;DHT22;206;48.782;9.252;2022-10-16T08:09:57;18.60;71.10
439;DHT22;206;48.782;9.252;2022-10-16T08:12:24;18.60;70.40
439;DHT22;206;48.782;9.252;2022-10-16T08:14:50;18.70;69.60
439;DHT22;206;48.782;9.252;2022-10-16T08:17:15;18.70;69.30
439;DHT22;206;48.782;9.252;2022-10-16T08:19:47;18.90;69.60
439;DHT22;206;48.782;9.252;2022-10-16T08:22:15;19.00;66.90
439;DHT22;206;48.782;9.252;2022-10-16T08:24:41;19.10;65.90
439;DHT22;206;48.782;9.252;2022-10-16T08:27:07;19.20;63.50
439;DHT22;206;48.782;9.252;2022-10-16T08:29:34;19.30;63.50
439;DHT22;206;48.782;9.252;2022-10-16T08:32:00;19.40;63.40
439;DHT22;206;48.782;9.252;2022-10-16T08:34:25;19.70;62.10
439;DHT22;206;48.782;9.252;2022-10-16T08:36:53;19.80;59.60
439;DHT22;206;48.782;9.252;2022-10-16T08:39:19;20.00;58.10
439;DHT22;206;48.782;9.252;2022-10-16T08:50:10;20.70;51.40
439;DHT22;206;48.782;9.252;2022-10-16T08:52:40;20.90;51.20
439;DHT22;206;48.782;9.252;2022-10-16T08:57:58;21.20;49.90
439;DHT22;206;48.782;9.252;2022-10-16T09:00:24;21.30;48.80
439;DHT22;206;48.782;9.252;2022-10-16T09:02:59;21.40;47.80
439;DHT22;206;48.782;9.252;2022-10-16T09:05:47;21.40;47.30
439;DHT22;206;48.782;9.252;2022-10-16T09:11:11;21.60;45.50
439;DHT22;206;48.782;9.252;2022-10-16T09:13:50;21.60;45.30
439;DHT22;206;48.782;9.252;2022-10-16T09:16:24;21.70;44.70
439;DHT22;206;48.782;9.252;2022-10-16T09:19:04;21.80;44.30
439;DHT22;206;48.782;9.252;2022-10-16T09:21:43;21.90;44.30
439;DHT22;206;48.782;9.252;2022-10-16T09:24:18;21.70;44.90
439;DHT22;206;48.782;9.252;2022-10-16T09:26:45;21.40;46.50
439;DHT22;206;48.782;9.252;2022-10-16T09:29:16;21.60;45.20
439;DHT22;206;48.782;9.252;2022-10-16T09:31:42;21.70;44.10
439;DHT22;206;48.782;9.252;2022-10-16T09:34:30;21.60;44.80
439;DHT22;206;48.782;9.252;2022-10-16T09:36:59;21.60;44.10
439;DHT22;206;48.782;9.252;2022-10-16T09:39:25;21.50;44.10
439;DHT22;206;48.782;9.252;2022-10-16T09:41:51;21.50;45.00
439;DHT22;206;48.782;9.252;2022-10-16T09:47:02;21.70;45.20
439;DHT22;206;48.782;9.252;2022-10-16T09:49:28;21.80;44.70
439;DHT22;206;48.782;9.252;2022-10-16T09:52:12;21.80;44.30
439;DHT22;206;48.782;9.252;2022-10-16T09:54:38;21.70;44.90
439;DHT22;206;48.782;9.252;2022-10-16T09:57:13;21.50;46.00
439;DHT22;206;48.782;9.252;2022-10-16T09:59:50;21.50;46.70
439;DHT22;206;48.782;9.252;2022-10-16T10:02:38;21.50;46.30
439;DHT22;206;48.782;9.252;2022-10-16T10:05:05;21.40;47.30
439;DHT22;206;48.782;9.252;2022-10-16T10:07:43;21.40;47.60
439;DHT22;206;48.782;9.252;2022-10-16T10:10:21;21.40;46.90
439;DHT22;206;48.782;9.252;2022-10-16T10:12:47;21.30;47.90
439;DHT22;206;48.782;9.252;2022-10-16T10:15:14;21.40;47.30
439;DHT22;206;48.782;9.252;2022-10-16T10:17:52;21.60;46.50
439;DHT22;206;48.782;9.252;2022-10-16T10:20:32;21.80;45.80
439;DHT22;206;48.782;9.252;2022-10-16T10:23:01;22.00;44.60
439;DHT22;206;48.782;9.252;2022-10-16T10:31:58;22.30;42.50
439;DHT22;206;48.782;9.252;2022-10-16T10:34:32;22.20;41.30
439;DHT22;206;48.782;9.252;2022-10-16T10:37:15;22.10;42.50
439;DHT22;206;48.782;9.252;2022-10-16T10:40:06;22.20;42.00
439;DHT22;206;48.782;9.252;2022-10-16T10:42:53;22.20;41.00
439;DHT22;206;48.782;9.252;2022-10-16T10:45:46;22.40;41.30
439;DHT22;206;48.782;9.252;2022-10-16T10:48:24;22.50;40.80
439;DHT22;206;48.782;9.252;2022-10-16T10:51:01;22.70;39.60
439;DHT22;206;48.782;9.252;2022-10-16T10:56:42;23.30;39.10
439;DHT22;206;48.782;9.252;2022-10-16T11:07:54;23.90;34.50
439;DHT22;206;48.782;9.252;2022-10-16T11:10:25;24.00;33.50
439;DHT22;206;48.782;9.252;2022-10-16T11:13:00;24.00;32.50
439;DHT22;206;48.782;9.252;2022-10-16T11:15:33;24.10;32.60
439;DHT22;206;48.782;9.252;2022-10-16T11:18:06;24.20;31.70
439;DHT22;206;48.782;9.252;2022-10-16T11:20:47;24.30;30.70
439;DHT22;206;48.782;9.252;2022-10-16T11:23:35;24.30;29.70
439;DHT22;206;48.782;9.252;2022-10-16T11:26:09;24.30;29.80
439;DHT22;206;48.782;9.252;2022-10-16T11:28:42;24.20;29.40
439;DHT22;206;48.782;9.252;2022-10-16T11:33:59;24.00;29.90
439;DHT22;206;48.782;9.252;2022-10-16T11:41:47;24.40;28.70
439;DHT22;206;48.782;9.252;2022-10-16T11:49:31;24.80;27.10
439;DHT22;206;48.782;9.252;2022-10-16T11:57:29;25.00;26.90
439;DHT22;206;48.782;9.252;2022-10-16T12:00:08;24.90;27.20
439;DHT22;206;48.782;9.252;2022-10-16T12:08:12;24.80;27.20
439;DHT22;206;48.782;9.252;2022-10-16T12:10:40;25.10;26.60
439;DHT22;206;48.782;9.252;2022-10-16T12:13:32;25.20;26.10
439;DHT22;206;48.782;9.252;2022-10-16T12:16:21;25.20;25.80
439;DHT22;206;48.782;9.252;2022-10-16T12:18:48;25.30;25.20
439;DHT22;206;48.782;9.252;2022-10-16T12:21:16;25.20;25.70
439;DHT22;206;48.782;9.252;2022-10-16T12:23:50;25.20;25.50
439;DHT22;206;48.782;9.252;2022-10-16T12:26:29;25.40;25.70
439;DHT22;206;48.782;9.252;2022-10-16T12:28:56;25.50;25.00
439;DHT22;206;48.782;9.252;2022-10-16T12:31:23;25.70;24.40
439;DHT22;206;48.782;9.252;2022-10-16T12:34:01;25.70;24.20
439;DHT22;206;48.782;9.252;2022-10-16T12:36:32;25.80;23.50
439;DHT22;206;48.782;9.252;2022-10-16T12:38:59;25.90;23.20
439;DHT22;206;48.782;9.252;2022-10-16T12:41:34;25.90;23.30
439;DHT22;206;48.782;9.252;2022-10-16T12:44:01;26.10;23.40
439;DHT22;206;48.782;9.252;2022-10-16T12:51:39;26.40;22.30
439;DHT22;206;48.782;9.252;2022-10-16T13:02:34;26.00;21.90
439;DHT22;206;48.782;9.252;2022-10-16T13:05:30;25.80;22.60
439;DHT22;206;48.782;9.252;2022-10-16T13:18:48;24.90;25.10
439;DHT22;206;48.782;9.252;2022-10-16T13:21:29;24.80;25.50
439;DHT22;206;48.782;9.252;2022-10-16T13:24:00;24.90;25.50
439;DHT22;206;48.782;9.252;2022-10-16T13:26:49;25.00;25.10
439;DHT22;206;48.782;9.252;2022-10-16T13:29:18;25.20;24.30
439;DHT22;206;48.782;9.252;2022-10-16T13:31:45;25.30;24.70
439;DHT22;206;48.782;9.252;2022-10-16T13:34:20;25.40;24.80
439;DHT22;206;48.782;9.252;2022-10-16T13:36:51;25.40;24.70
439;DHT22;206;48.782;9.252;2022-10-16T13:39:26;25.50;24.50
439;DHT22;206;48.782;9.252;2022-10-16T13:42:12;25.60;24.20
439;DHT22;206;48.782;9.252;2022-10-16T13:44:46;25.70;23.60
439;DHT22;206;48.782;9.252;2022-10-16T13:47:20;25.70;23.60
439;DHT22;206;48.782;9.252;2022-10-16T13:49:58;25.70;24.00
439;DHT22;206;48.782;9.252;2022-10-16T13:52:23;25.60;23.60
439;DHT22;206;48.782;9.252;2022-10-16T13:54:49;25.70;23.90
439;DHT22;206;48.782;9.252;2022-10-16T13:57:16;25.70;23.30
439;DHT22;206;48.782;9.252;2022-10-16T13:59:42;25.70;23.60
439;DHT22;206;48.782;9.252;2022-10-16T14:02:31;25.60;23.90
439;DHT22;206;48.782;9.252;2022-10-16T14:05:02;25.50;24.00
439;DHT22;206;48.782;9.252;2022-10-16T14:07:30;25.30;24.20
439;DHT22;206;48.782;9.252;2022-10-16T14:10:02;25.20;24.50
439;DHT22;206;48.782;9.252;2022-10-16T14:12:29;25.00;25.40
439;DHT22;206;48.782;9.252;2022-10-16T14:14:55;24.90;25.90
439;DHT22;206;48.782;9.252;2022-10-16T14:17:33;24.70;27.00
439;DHT22;206;48.782;9.252;2022-10-16T14:20:04;24.70;27.00
439;DHT22;206;48.782;9.252;2022-10-16T14:22:35;24.50;26.90
439;DHT22;206;48.782;9.252;2022-10-16T14:25:13;24.50;27.80
439;DHT22;206;48.782;9.252;2022-10-16T14:27:42;24.40;28.80
439;DHT22;206;48.782;9.252;2022-10-16T14:32:33;24.40;29.30
439;DHT22;206;48.782;9.252;2022-10-16T14:34:59;24.40;29.70
439;DHT22;206;48.782;9.252;2022-10-16T14:37:27;24.40;29.80
439;DHT22;206;48.782;9.252;2022-10-16T14:39:54;24.40;29.90
439;DHT22;206;48.782;9.252;2022-10-16T14:42:23;24.30;30.40
439;DHT22;206;48.782;9.252;2022-10-16T14:44:51;24.40;30.20
439;DHT22;206;48.782;9.252;2022-10-16T14:47:20;24.40;30.30
439;DHT22;206;48.782;9.252;2022-10-16T14:49:53;24.40;29.90
439;DHT22;206;48.782;9.252;2022-10-16T14:52:21;24.50;30.50
439;DHT22;206;48.782;9.252;2022-10-16T14:54:50;24.50;30.80
439;DHT22;206;48.782;9.252;2022-10-16T14:57:22;24.50;31.30
439;DHT22;206;48.782;9.252;2022-10-16T14:59:49;24.50;31.20
439;DHT22;206;48.782;9.252;2022-10-16T15:04:57;24.50;31.60
439;DHT22;206;48.782;9.252;2022-10-16T15:07:23;24.50;31.90
439;DHT22;206;48.782;9.252;2022-10-16T15:09:49;24.40;32.60
439;DHT22;206;48.782;9.252;2022-10-16T15:12:16;24.30;33.30
439;DHT22;206;48.782;9.252;2022-10-16T15:14:42;24.30;33.40
439;DHT22;206;48.782;9.252;2022-10-16T15:17:10;24.20;34.30
439;DHT22;206;48.782;9.252;2022-10-16T15:19:36;24.20;34.70
439;DHT22;206;48.782;9.252;2022-10-16T15:22:02;24.20;35.70
439;DHT22;206;48.782;9.252;2022-10-16T15:24:27;24.10;36.10
439;DHT22;206;48.782;9.252;2022-10-16T15:26:53;24.10;36.50
439;DHT22;206;48.782;9.252;2022-10-16T15:29:18;24.10;36.10
439;DHT22;206;48.782;9.252;2022-10-16T15:31:44;24.20;36.20
439;DHT22;206;48.782;9.252;2022-10-16T15:34:12;24.20;36.20
439;DHT22;206;48.782;9.252;2022-10-16T15:36:39;24.20;35.30
439;DHT22;206;48.782;9.252;2022-10-16T15:39:25;24.10;35.90
439;DHT22;206;48.782;9.252;2022-10-16T15:41:50;24.10;36.00
439;DHT22;206;48.782;9.252;2022-10-16T15:44:19;24.10;36.10
439;DHT22;206;48.782;9.252;2022-10-16T15:46:45;23.90;35.90
439;DHT22;206;48.782;9.252;2022-10-16T15:49:11;23.90;36.30
439;DHT22;206;48.782;9.252;2022-10-16T15:51:41;23.80;35.80
439;DHT22;206;48.782;9.252;2022-10-16T15:54:08;23.80;36.20
439;DHT22;206;48.782;9.252;2022-10-16T15:56:33;23.70;36.90
439;DHT22;206;48.782;9.252;2022-10-16T15:59:02;23.60;36.50
439;DHT22;206;48.782;9.252;2022-10-16T16:01:28;23.60;36.00
439;DHT22;206;48.782;9.252;2022-10-16T16:03:56;23.50;37.60
439;DHT22;206;48.782;9.252;2022-10-16T16:06:22;23.50;37.00
439;DHT22;206;48.782;9.252;2022-10-16T16:08:50;23.40;37.40
439;DHT22;206;48.782;9.252;2022-10-16T16:11:16;23.30;38.40
439;DHT22;206;48.782;9.252;2022-10-16T16:13:43;23.30;39.50
439;DHT22;206;48.782;9.252;2022-10-16T16:16:11;23.20;39.90
439;DHT22;206;48.782;9.252;2022-10-16T16:18:37;23.00;41.20
439;DHT22;206;48.782;9.252;2022-10-16T16:21:03;22.90;42.40
439;DHT22;206;48.782;9.252;2022-10-16T16:23:29;22.80;42.50
439;DHT22;206;48.782;9.252;2022-10-16T16:26:09;22.70;41.90
439;DHT22;206;48.782;9.252;2022-10-16T16:28:36;22.50;41.90
439;DHT22;206;48.782;9.252;2022-10-16T16:31:02;22.40;41.60
439;DHT22;206;48.782;9.252;2022-10-16T16:33:28;22.30;43.40
439;DHT22;206;48.782;9.252;2022-10-16T16:36:01;22.20;43.20
439;DHT22;206;48.782;9.252;2022-10-16T16:38:27;22.10;43.60
439;DHT22;206;48.782;9.252;2022-10-16T16:40:53;22.00;44.20
439;DHT22;206;48.782;9.252;2022-10-16T16:43:23;22.00;44.50
439;DHT22;206;48.782;9.252;2022-10-16T16:45:48;21.90;44.40
439;DHT22;206;48.782;9.252;2022-10-16T16:48:14;21.80;44.30
439;DHT22;206;48.782;9.252;2022-10-16T16:50:40;21.80;44.50
439;DHT22;206;48.782;9.252;2022-10-16T16:53:05;21.70;44.90
439;DHT22;206;48.782;9.252;2022-10-16T16:55:33;21.70;45.10
439;DHT22;206;48.782;9.252;2022-10-16T16:57:58;21.70;46.00
439;DHT22;206;48.782;9.252;2022-10-16T17:00:24;21.60;47.50
439;DHT22;206;48.782;9.252;2022-10-16T17:02:50;21.60;49.10
439;DHT22;206;48.782;9.252;2022-10-16T17:05:17;21.50;49.40
439;DHT22;206;48.782;9.252;2022-10-16T17:07:42;21.40;49.60
439;DHT22;206;48.782;9.252;2022-10-16T17:10:08;21.30;50.20
439;DHT22;206;48.782;9.252;2022-10-16T17:12:34;21.20;50.80
439;DHT22;206;48.782;9.252;2022-10-16T17:15:00;21.20;51.20
439;DHT22;206;48.782;9.252;2022-10-16T17:17:25;21.10;51.60
439;DHT22;206;48.782;9.252;2022-10-16T17:19:51;21.10;52.20
439;DHT22;206;48.782;9.252;2022-10-16T17:22:18;21.00;53.40
439;DHT22;206;48.782;9.252;2022-10-16T17:24:45;21.00;54.60
439;DHT22;206;48.782;9.252;2022-10-16T17:27:15;20.90;55.10
439;DHT22;206;48.782;9.252;2022-10-16T17:29:40;20.80;55.90
439;DHT22;206;48.782;9.252;2022-10-16T17:32:06;20.70;56.50
439;DHT22;206;48.782;9.252;2022-10-16T17:34:32;20.70;57.30
439;DHT22;206;48.782;9.252;2022-10-16T17:36:57;20.60;57.90
439;DHT22;206;48.782;9.252;2022-10-16T17:39:23;20.50;58.60
439;DHT22;206;48.782;9.252;2022-10-16T17:41:49;20.50;59.10
439;DHT22;206;48.782;9.252;2022-10-16T17:44:15;20.40;59.70
439;DHT22;206;48.782;9.252;2022-10-16T17:46:51;20.30;60.40
439;DHT22;206;48.782;9.252;2022-10-16T17:49:18;20.20;60.90
439;DHT22;206;48.782;9.252;2022-10-16T17:51:43;20.10;61.40
439;DHT22;206;48.782;9.252;2022-10-16T17:54:10;20.00;62.30
439;DHT22;206;48.782;9.252;2022-10-16T17:56:36;19.90;62.30
439;DHT22;206;48.782;9.252;2022-10-16T17:59:02;19.80;62.80
439;DHT22;206;48.782;9.252;2022-10-16T18:01:34;19.80;63.40
439;DHT22;206;48.782;9.252;2022-10-16T18:04:13;19.70;64.40
439;DHT22;206;48.782;9.252;2022-10-16T18:06:40;19.60;65.00
439;DHT22;206;48.782;9.252;2022-10-16T18:09:07;19.60;65.10
439;DHT22;206;48.782;9.252;2022-10-16T18:11:34;19.50;65.40
439;DHT22;206;48.782;9.252;2022-10-16T18:14:00;19.50;66.10
439;DHT22;206;48.782;9.252;2022-10-16T18:16:27;19.40;66.80
439;DHT22;206;48.782;9.252;2022-10-16T18:18:54;19.30;67.80
439;DHT22;206;48.782;9.252;2022-10-16T18:21:21;19.30;68.20
439;DHT22;206;48.782;9.252;2022-10-16T18:23:47;19.30;68.90
439;DHT22;206;48.782;9.252;2022-10-16T18:26:14;19.20;70.10
439;DHT22;206;48.782;9.252;2022-10-16T18:28:41;19.20;70.90
439;DHT22;206;48.782;9.252;2022-10-16T18:31:10;19.10;71.60
439;DHT22;206;48.782;9.252;2022-10-16T18:33:37;19.00;71.70
439;DHT22;206;48.782;9.252;2022-10-16T18:36:06;19.00;72.70